METAR Data
IDs: Format: Raw Decoded Include TAF

Data at: 1438 UTC 25 Jan 2020

METAR for:KCAV (Clarion Muni, IA, US)
Text:KCAV 251435Z AUTO 31010KT 9SM OVC025 M02/M03 A2999 RMK A01
Temperature: -2.0°C ( 28°F)
Dewpoint: -3.0°C ( 27°F) [RH = 93%]
Pressure (altimeter):29.99 inches Hg (1015.7 mb)
Winds:from the NW (310 degrees) at 12 MPH (10 knots; 5.1 m/s)
Visibility: 9 sm ( 14 km)
Ceiling:2500 feet AGL
Clouds: overcast cloud deck at 2500 feet AGL
QC Flag:automated observation with no human augmentation